Time;durP1;ratioP1;P1;durP2;ratioP2;P2;SDS_P1;SDS_P2;PMS_P1;PMS_P2;Temp;Humidity;BMP_temperature;BMP_pressure;BME280_temperature;BME280_humidity;BME280_pressure;Samples;Min_cycle;Max_cycle;Signal;HPM_P1;HPM_P2
2023/07/26 00:00:54;;;;;;;;;;;;;;;;;;5309238;28;20278;-76
2023/07/26 00:03:25;;;;;;;;;;;;;;;;;;5310164;28;19910;-76
2023/07/26 00:05:56;;;;;;;;;;;;;;;;;;5310003;28;19904;-75
2023/07/26 00:08:27;;;;;;;;;;;;;;;;;;5309426;28;19915;-76
2023/07/26 00:10:58;;;;;;;;;;;;;;;;;;5310242;28;19904;-76
2023/07/26 00:13:29;;;;;;;;;;;;;;;;;;5309193;28;19931;-75
2023/07/26 00:16:00;;;;;;;;;;;;;;;;;;5310218;28;19949;-76
2023/07/26 00:18:31;;;;;;;;;;;;;;;;;;5309666;28;19908;-76
2023/07/26 00:21:03;;;;;;;;;;;;;;;;;;5309400;28;19950;-76
2023/07/26 00:23:34;;;;;;;;;;;;;;;;;;5309681;28;20384;-77
2023/07/26 00:26:05;;;;;;;;;;;;;;;;;;5310321;28;19908;-77
2023/07/26 00:28:36;;;;;;;;;;;;;;;;;;5308737;28;19927;-77
2023/07/26 00:31:07;;;;;;;;;;;;;;;;;;5310113;28;19908;-76
2023/07/26 00:33:38;;;;;;;;;;;;;;;;;;5309529;28;19923;-77
2023/07/26 00:36:09;;;;;;;;;;;;;;;;;;5309463;28;19990;-77
2023/07/26 00:38:40;;;;;;;;;;;;;;;;;;5309592;28;20262;-77
2023/07/26 00:41:11;;;;;;;;;;;;;;;;;;5310094;28;19940;-76
2023/07/26 00:43:42;;;;;;;;;;;;;;;;;;5308844;28;20369;-77
2023/07/26 00:46:15;;;;;;;;;;;;;;;;;;5310145;28;19963;-77
2023/07/26 00:48:46;;;;;;;;;;;;;;;;;;5308608;28;20000;-77
2023/07/26 00:51:17;;;;;;;;;;;;;;;;;;5310044;28;19904;-77
2023/07/26 00:53:48;;;;;;;;;;;;;;;;;;5309218;28;19965;-76
2023/07/26 00:56:19;;;;;;;;;;;;;;;;;;5309221;28;19904;-77
2023/07/26 00:58:51;;;;;;;;;;;;;;;;;;5309409;28;19914;-77
2023/07/26 01:01:22;;;;;;;;;;;;;;;;;;5309996;28;19910;-76
2023/07/26 01:03:53;;;;;;;;;;;;;;;;;;5308387;28;19904;-76
2023/07/26 01:06:24;;;;;;;;;;;;;;;;;;5306872;28;19939;-77
2023/07/26 01:08:55;;;;;;;;;;;;;;;;;;5306249;28;19943;-76
2023/07/26 01:11:26;;;;;;;;;;;;;;;;;;5305427;28;20358;-77
2023/07/26 01:13:57;;;;;;;;;;;;;;;;;;5305940;28;19911;-76
2023/07/26 01:16:28;;;;;;;;;;;;;;;;;;5306063;28;19910;-77
2023/07/26 01:19:00;;;;;;;;;;;;;;;;;;5305568;28;19946;-76
2023/07/26 01:21:31;;;;;;;;;;;;;;;;;;5305872;28;20401;-76
2023/07/26 01:24:02;;;;;;;;;;;;;;;;;;5305566;28;19903;-76
2023/07/26 01:26:33;;;;;;;;;;;;;;;;;;5305547;28;20248;-76
2023/07/26 01:29:04;;;;;;;;;;;;;;;;;;5305894;28;20274;-77
2023/07/26 01:31:35;;;;;;;;;;;;;;;;;;5304528;28;19904;-77
2023/07/26 01:34:06;;;;;;;;;;;;;;;;;;5306082;28;19912;-77
2023/07/26 01:36:37;;;;;;;;;;;;;;;;;;5305357;28;19987;-77
2023/07/26 01:39:09;;;;;;;;;;;;;;;;;;5305047;28;19947;-76
2023/07/26 01:41:40;;;;;;;;;;;;;;;;;;5305110;28;19900;-76
2023/07/26 01:44:11;;;;;;;;;;;;;;;;;;5306030;28;19957;-76
2023/07/26 01:46:42;;;;;;;;;;;;;;;;;;5304187;28;19900;-76
2023/07/26 01:49:16;;;;;;;;;;;;;;;;;;5305745;28;19912;-76
2023/07/26 01:51:48;;;;;;;;;;;;;;;;;;5304107;28;19904;-76
2023/07/26 01:54:19;;;;;;;;;;;;;;;;;;5305553;28;19911;-76
2023/07/26 01:56:50;;;;;;;;;;;;;;;;;;5305049;28;20008;-76
2023/07/26 01:59:21;;;;;;;;;;;;;;;;;;5304818;28;19911;-76
2023/07/26 02:01:52;;;;;;;;;;;;;;;;;;5304812;28;20288;-76
2023/07/26 02:04:24;;;;;;;;;;;;;;;;;;5305000;28;19904;-76
2023/07/26 02:06:55;;;;;;;;;;;;;;;;;;5304159;28;19926;-75
2023/07/26 02:09:26;;;;;;;;;;;;;;;;;;5305007;28;19972;-76
2023/07/26 02:11:57;;;;;;;;;;;;;;;;;;5305024;28;19904;-76
2023/07/26 02:14:28;;;;;;;;;;;;;;;;;;5304332;28;19908;-76
2023/07/26 02:16:59;;;;;;;;;;;;;;;;;;5304750;28;20270;-76
2023/07/26 02:19:30;;;;;;;;;;;;;;;;;;5303980;28;19904;-75
2023/07/26 02:22:02;;;;;;;;;;;;;;;;;;5304297;28;19904;-76
2023/07/26 02:24:34;;;;;;;;;;;;;;;;;;5304349;28;19974;-76
2023/07/26 02:27:05;;;;;;;;;;;;;;;;;;5304032;28;19910;-76
2023/07/26 02:29:36;;;;;;;;;;;;;;;;;;5304095;28;20277;-76
2023/07/26 02:32:07;;;;;;;;;;;;;;;;;;5304536;28;19923;-76
2023/07/26 02:34:38;;;;;;;;;;;;;;;;;;5303483;28;20292;-76
2023/07/26 02:37:09;;;;;;;;;;;;;;;;;;5304822;28;19908;-76
2023/07/26 02:39:40;;;;;;;;;;;;;;;;;;5304042;28;19904;-76
2023/07/26 02:42:12;;;;;;;;;;;;;;;;;;5303798;28;19960;-76
2023/07/26 02:44:43;;;;;;;;;;;;;;;;;;5303783;28;19987;-76
2023/07/26 02:47:14;;;;;;;;;;;;;;;;;;5304649;28;19907;-76
2023/07/26 02:49:45;;;;;;;;;;;;;;;;;;5302981;28;19912;-76
2023/07/26 02:52:16;;;;;;;;;;;;;;;;;;5304338;28;19904;-76
2023/07/26 02:54:47;;;;;;;;;;;;;;;;;;5303648;28;19904;-76
2023/07/26 02:57:19;;;;;;;;;;;;;;;;;;5303453;28;19904;-76
2023/07/26 02:59:50;;;;;;;;;;;;;;;;;;5303877;28;20266;-74
2023/07/26 03:02:21;;;;;;;;;;;;;;;;;;5303552;28;19904;-75
2023/07/26 03:04:52;;;;;;;;;;;;;;;;;;5303411;28;19958;-75
2023/07/26 03:07:23;;;;;;;;;;;;;;;;;;5303665;28;20303;-75
2023/07/26 03:09:55;;;;;;;;;;;;;;;;;;5303009;28;19912;-75
2023/07/26 03:12:26;;;;;;;;;;;;;;;;;;5303751;28;19979;-75
2023/07/26 03:14:57;;;;;;;;;;;;;;;;;;5303714;28;19904;-75
2023/07/26 03:17:28;;;;;;;;;;;;;;;;;;5302750;28;20339;-75
2023/07/26 03:19:59;;;;;;;;;;;;;;;;;;5303388;28;19911;-75
2023/07/26 03:22:30;;;;;;;;;;;;;;;;;;5303208;28;19908;-75
2023/07/26 03:25:01;;;;;;;;;;;;;;;;;;5303269;28;20292;-75
2023/07/26 03:27:32;;;;;;;;;;;;;;;;;;5303142;28;19904;-75
2023/07/26 03:30:03;;;;;;;;;;;;;;;;;;5302968;28;19912;-75
2023/07/26 03:32:35;;;;;;;;;;;;;;;;;;5301727;28;19916;-76
2023/07/26 03:35:06;;;;;;;;;;;;;;;;;;5303479;28;19900;-75
2023/07/26 03:37:37;;;;;;;;;;;;;;;;;;5302090;28;19908;-75
2023/07/26 03:40:08;;;;;;;;;;;;;;;;;;5303473;28;20248;-75
2023/07/26 03:42:39;;;;;;;;;;;;;;;;;;5303180;28;19904;-75
2023/07/26 03:45:11;;;;;;;;;;;;;;;;;;5302732;28;20408;-75
2023/07/26 03:47:42;;;;;;;;;;;;;;;;;;5302696;28;20017;-75
2023/07/26 03:50:13;;;;;;;;;;;;;;;;;;5303253;28;20329;-75
2023/07/26 03:52:44;;;;;;;;;;;;;;;;;;5301746;28;19904;-75
2023/07/26 03:55:15;;;;;;;;;;;;;;;;;;5303005;28;19943;-75
2023/07/26 03:57:46;;;;;;;;;;;;;;;;;;5302835;28;19904;-75
2023/07/26 04:00:17;;;;;;;;;;;;;;;;;;5302663;28;20397;-75
2023/07/26 04:02:48;;;;;;;;;;;;;;;;;;5302517;28;19904;-75
2023/07/26 04:05:19;;;;;;;;;;;;;;;;;;5303119;28;19908;-75
2023/07/26 04:07:51;;;;;;;;;;;;;;;;;;5302019;28;19911;-75
2023/07/26 04:10:22;;;;;;;;;;;;;;;;;;5303455;28;19912;-75
2023/07/26 04:12:53;;;;;;;;;;;;;;;;;;5301999;28;19904;-75
2023/07/26 04:15:24;;;;;;;;;;;;;;;;;;5302813;28;19915;-76
2023/07/26 04:17:56;;;;;;;;;;;;;;;;;;5302838;28;19957;-76
2023/07/26 04:20:27;;;;;;;;;;;;;;;;;;5301928;28;19911;-76
2023/07/26 04:22:58;;;;;;;;;;;;;;;;;;5302741;28;20370;-77
2023/07/26 04:25:30;;;;;;;;;;;;;;;;;;5302781;28;19919;-76
2023/07/26 04:28:01;;;;;;;;;;;;;;;;;;5302153;28;19904;-76
2023/07/26 04:30:32;;;;;;;;;;;;;;;;;;5302645;28;19908;-76
2023/07/26 04:33:03;;;;;;;;;;;;;;;;;;5304348;28;19915;-75
2023/07/26 04:35:34;;;;;;;;;;;;;;;;;;5284382;28;19903;-75
2023/07/26 04:38:05;;;;;;;;;;;;;;;;;;5303205;28;19904;-75
2023/07/26 04:40:37;;;;;;;;;;;;;;;;;;5302274;28;19904;-76
2023/07/26 04:43:08;;;;;;;;;;;;;;;;;;5307089;28;19910;-76
2023/07/26 04:45:39;;;;;;;;;;;;;;;;;;5306714;28;20347;-76
2023/07/26 04:48:11;;;;;;;;;;;;;;;;;;5306187;28;19904;-75
2023/07/26 04:50:42;;;;;;;;;;;;;;;;;;5306127;28;19957;-75
2023/07/26 04:53:13;;;;;;;;;;;;;;;;;;5306766;28;19904;-75
2023/07/26 04:55:44;;;;;;;;;;;;;;;;;;5305837;28;19943;-75
2023/07/26 04:58:15;;;;;;;;;;;;;;;;;;5306777;28;20326;-75
2023/07/26 05:00:46;;;;;;;;;;;;;;;;;;5305996;28;19911;-74
2023/07/26 05:03:17;;;;;;;;;;;;;;;;;;5306038;28;19904;-75
2023/07/26 05:05:49;;;;;;;;;;;;;;;;;;5305926;28;19904;-76
2023/07/26 05:08:21;;;;;;;;;;;;;;;;;;5306597;28;19912;-75
2023/07/26 05:10:52;;;;;;;;;;;;;;;;;;5305378;28;20317;-75
2023/07/26 05:13:24;;;;;;;;;;;;;;;;;;5306106;28;19908;-75
2023/07/26 05:15:55;;;;;;;;;;;;;;;;;;5305604;28;19904;-76
2023/07/26 05:18:26;;;;;;;;;;;;;;;;;;5308532;28;19904;-76
2023/07/26 05:20:57;;;;;;;;;;;;;;;;;;5306873;28;19911;-76
2023/07/26 05:23:28;;;;;;;;;;;;;;;;;;5305433;28;19911;-75
2023/07/26 05:25:59;;;;;;;;;;;;;;;;;;5306305;28;19904;-75
2023/07/26 05:28:30;;;;;;;;;;;;;;;;;;5305419;28;19912;-75
2023/07/26 05:31:02;;;;;;;;;;;;;;;;;;5305227;28;19950;-76
2023/07/26 05:33:33;;;;;;;;;;;;;;;;;;5305205;28;19916;-75
2023/07/26 05:36:04;;;;;;;;;;;;;;;;;;5305916;28;19904;-75
2023/07/26 05:38:35;;;;;;;;;;;;;;;;;;5304626;28;19904;-76
2023/07/26 05:41:06;;;;;;;;;;;;;;;;;;5305666;28;19904;-75
2023/07/26 05:43:37;;;;;;;;;;;;;;;;;;5305120;28;19904;-75
2023/07/26 05:46:08;;;;;;;;;;;;;;;;;;5305112;28;19911;-75
2023/07/26 05:48:39;;;;;;;;;;;;;;;;;;5304944;28;20424;-76
2023/07/26 05:51:11;;;;;;;;;;;;;;;;;;5304697;28;19911;-76
2023/07/26 05:53:42;;;;;;;;;;;;;;;;;;5303893;28;19911;-75
2023/07/26 05:56:14;;;;;;;;;;;;;;;;;;5305655;28;20314;-76
2023/07/26 05:58:45;;;;;;;;;;;;;;;;;;5303888;28;19926;-75
2023/07/26 06:01:16;;;;;;;;;;;;;;;;;;5305418;28;20270;-75
2023/07/26 06:03:47;;;;;;;;;;;;;;;;;;5304722;28;19995;-75
2023/07/26 06:06:18;;;;;;;;;;;;;;;;;;5304489;28;20266;-75
2023/07/26 06:08:50;;;;;;;;;;;;;;;;;;5304482;28;20019;-75
2023/07/26 06:11:22;;;;;;;;;;;;;;;;;;5305417;28;20022;-75
2023/07/26 06:13:53;;;;;;;;;;;;;;;;;;5303790;28;19998;-76
2023/07/26 06:16:24;;;;;;;;;;;;;;;;;;5304663;28;20017;-76
2023/07/26 06:18:55;;;;;;;;;;;;;;;;;;5304642;28;20338;-75
2023/07/26 06:21:26;;;;;;;;;;;;;;;;;;5303828;28;20002;-76
2023/07/26 06:23:57;;;;;;;;;;;;;;;;;;5304729;28;20281;-75
2023/07/26 06:26:28;;;;;;;;;;;;;;;;;;5303788;28;19904;-75
2023/07/26 06:28:59;;;;;;;;;;;;;;;;;;5304412;28;20342;-75
2023/07/26 06:31:30;;;;;;;;;;;;;;;;;;5303677;28;19912;-76
2023/07/26 06:34:01;;;;;;;;;;;;;;;;;;5304158;28;20329;-75
2023/07/26 06:36:32;;;;;;;;;;;;;;;;;;5304072;28;19904;-76
2023/07/26 06:39:04;;;;;;;;;;;;;;;;;;5304598;28;19904;-75
2023/07/26 06:41:35;;;;;;;;;;;;;;;;;;5303029;28;19965;-76
2023/07/26 06:44:06;;;;;;;;;;;;;;;;;;5305023;28;19908;-75
2023/07/26 06:46:38;;;;;;;;;;;;;;;;;;5303988;28;19911;-75
2023/07/26 06:49:11;;;;;;;;;;;;;;;;;;5303651;28;20014;-75
2023/07/26 06:51:42;;;;;;;;;;;;;;;;;;5303804;28;19915;-75
2023/07/26 06:54:13;;;;;;;;;;;;;;;;;;5303625;28;19904;-75
2023/07/26 06:56:44;;;;;;;;;;;;;;;;;;5303268;28;19910;-74
2023/07/26 06:59:16;;;;;;;;;;;;;;;;;;5304212;28;20289;-74
2023/07/26 07:01:48;;;;;;;;;;;;;;;;;;5302866;28;19920;-74
2023/07/26 07:04:19;;;;;;;;;;;;;;;;;;5303005;28;19915;-74
2023/07/26 07:06:50;;;;;;;;;;;;;;;;;;5303155;28;19912;-75
2023/07/26 07:09:21;;;;;;;;;;;;;;;;;;5303337;28;19919;-75
2023/07/26 07:11:52;;;;;;;;;;;;;;;;;;5303149;28;19956;-74
2023/07/26 07:14:23;;;;;;;;;;;;;;;;;;5303753;28;20273;-75
2023/07/26 07:16:54;;;;;;;;;;;;;;;;;;5302660;28;19911;-75
2023/07/26 07:19:25;;;;;;;;;;;;;;;;;;5303344;28;19965;-75
2023/07/26 07:21:57;;;;;;;;;;;;;;;;;;5303591;28;19904;-75
2023/07/26 07:24:28;;;;;;;;;;;;;;;;;;5302710;28;19904;-74
2023/07/26 07:26:59;;;;;;;;;;;;;;;;;;5303417;28;19904;-75
2023/07/26 07:29:30;;;;;;;;;;;;;;;;;;5302108;28;20254;-75
2023/07/26 07:32:01;;;;;;;;;;;;;;;;;;5303144;28;19916;-76
2023/07/26 07:34:32;;;;;;;;;;;;;;;;;;5303169;28;19923;-75
2023/07/26 07:37:03;;;;;;;;;;;;;;;;;;5302817;28;19904;-75
2023/07/26 07:39:34;;;;;;;;;;;;;;;;;;5284996;28;20317;-76
2023/07/26 07:42:06;;;;;;;;;;;;;;;;;;5303571;28;19951;-75
2023/07/26 07:44:37;;;;;;;;;;;;;;;;;;5302354;28;20361;-76
2023/07/26 07:47:08;;;;;;;;;;;;;;;;;;5303501;28;20002;-76
2023/07/26 07:49:39;;;;;;;;;;;;;;;;;;5302732;28;20379;-75
2023/07/26 07:52:10;;;;;;;;;;;;;;;;;;5302601;28;19908;-76
2023/07/26 07:54:41;;;;;;;;;;;;;;;;;;5302742;28;19911;-75
2023/07/26 07:57:12;;;;;;;;;;;;;;;;;;5303096;28;19911;-75
2023/07/26 07:59:43;;;;;;;;;;;;;;;;;;5302138;28;20271;-76
2023/07/26 08:02:14;;;;;;;;;;;;;;;;;;5303538;28;19911;-75
2023/07/26 08:04:46;;;;;;;;;;;;;;;;;;5300834;28;19946;-75
2023/07/26 08:07:17;;;;;;;;;;;;;;;;;;5303141;28;19939;-76
2023/07/26 08:09:48;;;;;;;;;;;;;;;;;;5301672;28;20105;-75
2023/07/26 08:12:19;;;;;;;;;;;;;;;;;;5302479;28;20010;-75
2023/07/26 08:14:50;;;;;;;;;;;;;;;;;;5302402;28;19904;-76
2023/07/26 08:17:21;;;;;;;;;;;;;;;;;;5306492;28;19903;-75
2023/07/26 08:19:52;;;;;;;;;;;;;;;;;;5306129;28;20319;-75
2023/07/26 08:22:23;;;;;;;;;;;;;;;;;;5307056;28;19904;-75
2023/07/26 08:24:54;;;;;;;;;;;;;;;;;;5306981;28;20380;-74
2023/07/26 08:27:26;;;;;;;;;;;;;;;;;;5315403;28;19908;-74
2023/07/26 08:29:57;;;;;;;;;;;;;;;;;;5326955;28;20408;-75
2023/07/26 08:32:28;;;;;;;;;;;;;;;;;;5327764;28;19969;-76
2023/07/26 08:34:59;;;;;;;;;;;;;;;;;;5326726;28;19927;-75
2023/07/26 08:37:30;;;;;;;;;;;;;;;;;;5326232;28;20430;-76
2023/07/26 08:40:01;;;;;;;;;;;;;;;;;;5325957;28;19904;-77
2023/07/26 08:42:32;;;;;;;;;;;;;;;;;;5327641;28;20255;-75
2023/07/26 08:45:03;;;;;;;;;;;;;;;;;;5327875;28;19904;-75
2023/07/26 08:47:34;;;;;;;;;;;;;;;;;;5326767;28;20350;-76
2023/07/26 08:50:06;;;;;;;;;;;;;;;;;;5328036;28;19957;-75
2023/07/26 08:52:37;;;;;;;;;;;;;;;;;;5327040;28;20370;-75
2023/07/26 08:55:08;;;;;;;;;;;;;;;;;;5327226;28;19907;-76
2023/07/26 08:57:39;;;;;;;;;;;;;;;;;;5309000;28;19965;-76
2023/07/26 09:00:11;;;;;;;;;;;;;;;;;;5327739;28;19915;-75
2023/07/26 09:02:42;;;;;;;;;;;;;;;;;;5326019;28;19904;-74
2023/07/26 09:05:13;;;;;;;;;;;;;;;;;;5327786;28;19957;-76
2023/07/26 09:07:44;;;;;;;;;;;;;;;;;;5326800;28;19908;-75
2023/07/26 09:10:15;;;;;;;;;;;;;;;;;;5326888;28;20247;-75
2023/07/26 09:12:47;;;;;;;;;;;;;;;;;;5327166;28;19956;-76
2023/07/26 09:15:18;;;;;;;;;;;;;;;;;;5326280;28;19904;-76
2023/07/26 09:17:49;;;;;;;;;;;;;;;;;;5326499;28;19908;-76
2023/07/26 09:20:20;;;;;;;;;;;;;;;;;;5327341;28;19903;-75
2023/07/26 09:22:52;;;;;;;;;;;;;;;;;;5326005;28;19904;-74
2023/07/26 09:25:23;;;;;;;;;;;;;;;;;;5327483;28;19926;-74
2023/07/26 09:27:55;;;;;;;;;;;;;;;;;;5325255;28;19908;-75
2023/07/26 09:30:26;;;;;;;;;;;;;;;;;;5326005;28;19912;-76
2023/07/26 09:32:57;;;;;;;;;;;;;;;;;;5326737;28;19938;-75
2023/07/26 09:35:28;;;;;;;;;;;;;;;;;;5326684;28;19903;-74
2023/07/26 09:38:01;;;;;;;;;;;;;;;;;;5326194;28;19914;-74
2023/07/26 09:40:32;;;;;;;;;;;;;;;;;;5326344;28;19900;-75
2023/07/26 09:43:04;;;;;;;;;;;;;;;;;;5326131;28;20385;-74
2023/07/26 09:45:36;;;;;;;;;;;;;;;;;;5326266;28;19908;-75
2023/07/26 09:48:07;;;;;;;;;;;;;;;;;;5327014;28;19903;-75
2023/07/26 09:50:38;;;;;;;;;;;;;;;;;;5325414;28;19915;-76
2023/07/26 09:53:10;;;;;;;;;;;;;;;;;;5326377;28;20026;-74
2023/07/26 09:55:41;;;;;;;;;;;;;;;;;;5326041;28;19994;-77
2023/07/26 09:58:12;;;;;;;;;;;;;;;;;;5325732;28;19950;-78
2023/07/26 10:00:44;;;;;;;;;;;;;;;;;;5325908;28;19912;-77
2023/07/26 10:03:16;;;;;;;;;;;;;;;;;;5325759;28;19930;-77
2023/07/26 10:05:48;;;;;;;;;;;;;;;;;;5325189;28;20377;-77
2023/07/26 10:08:19;;;;;;;;;;;;;;;;;;5326409;28;19903;-77
2023/07/26 10:10:50;;;;;;;;;;;;;;;;;;5325948;28;20251;-78
2023/07/26 10:13:21;;;;;;;;;;;;;;;;;;5325655;28;19904;-77
2023/07/26 10:15:52;;;;;;;;;;;;;;;;;;5325837;28;19999;-76
2023/07/26 10:18:24;;;;;;;;;;;;;;;;;;5325213;28;19994;-77
2023/07/26 10:20:55;;;;;;;;;;;;;;;;;;5326115;28;19903;-77
2023/07/26 10:23:26;;;;;;;;;;;;;;;;;;5325910;28;19904;-77
2023/07/26 10:25:57;;;;;;;;;;;;;;;;;;5325163;28;19939;-78
2023/07/26 10:28:28;;;;;;;;;;;;;;;;;;5325711;28;20011;-78
2023/07/26 10:30:59;;;;;;;;;;;;;;;;;;5325571;28;20361;-77
2023/07/26 10:33:30;;;;;;;;;;;;;;;;;;5324476;28;19927;-77
2023/07/26 10:36:02;;;;;;;;;;;;;;;;;;5325987;28;19911;-77
2023/07/26 10:38:33;;;;;;;;;;;;;;;;;;5324961;28;19946;-76
2023/07/26 10:41:04;;;;;;;;;;;;;;;;;;5324995;28;19957;-79
2023/07/26 10:43:35;;;;;;;;;;;;;;;;;;5325012;28;19903;-75
2023/07/26 10:46:06;;;;;;;;;;;;;;;;;;5325818;28;20270;-77
2023/07/26 10:48:37;;;;;;;;;;;;;;;;;;5324132;28;19912;-77
2023/07/26 10:51:08;;;;;;;;;;;;;;;;;;5325562;28;20350;-77
2023/07/26 10:53:39;;;;;;;;;;;;;;;;;;5324231;28;19905;-78
2023/07/26 10:56:10;;;;;;;;;;;;;;;;;;5325721;28;19998;-78
2023/07/26 10:58:41;;;;;;;;;;;;;;;;;;5324920;28;20053;-78
2023/07/26 11:01:13;;;;;;;;;;;;;;;;;;5324566;28;19904;-78
2023/07/26 11:03:44;;;;;;;;;;;;;;;;;;5324807;28;20266;-78
2023/07/26 11:06:15;;;;;;;;;;;;;;;;;;5325274;28;19904;-78
2023/07/26 11:08:47;;;;;;;;;;;;;;;;;;5324093;28;19907;-77
2023/07/26 11:11:18;;;;;;;;;;;;;;;;;;5325242;28;19910;-77
2023/07/26 11:13:50;;;;;;;;;;;;;;;;;;5324493;28;20260;-77
2023/07/26 11:16:21;;;;;;;;;;;;;;;;;;5324320;28;19914;-78
2023/07/26 11:18:52;;;;;;;;;;;;;;;;;;5324350;28;20307;-78
2023/07/26 11:21:23;;;;;;;;;;;;;;;;;;5324997;28;19953;-77
2023/07/26 11:23:54;;;;;;;;;;;;;;;;;;5323841;28;19905;-77
2023/07/26 11:26:26;;;;;;;;;;;;;;;;;;5324659;28;20224;-76
2023/07/26 11:28:57;;;;;;;;;;;;;;;;;;5324148;28;19934;-75
2023/07/26 11:31:28;;;;;;;;;;;;;;;;;;5324025;28;19903;-75
2023/07/26 11:33:59;;;;;;;;;;;;;;;;;;5324435;28;19903;-82
2023/07/26 11:36:30;;;;;;;;;;;;;;;;;;5323498;28;20289;-74
2023/07/26 11:39:01;;;;;;;;;;;;;;;;;;5324710;28;19910;-76
2023/07/26 11:41:32;;;;;;;;;;;;;;;;;;5323964;28;19936;-74
2023/07/26 11:44:03;;;;;;;;;;;;;;;;;;5324105;28;19939;-74
2023/07/26 11:46:35;;;;;;;;;;;;;;;;;;5324066;28;19991;-76
2023/07/26 11:49:06;;;;;;;;;;;;;;;;;;5324291;28;19911;-76
2023/07/26 11:51:37;;;;;;;;;;;;;;;;;;5322617;28;20385;-76
2023/07/26 11:54:10;;;;;;;;;;;;;;;;;;5324353;28;19911;-76
2023/07/26 11:56:41;;;;;;;;;;;;;;;;;;5323228;28;20304;-75
2023/07/26 11:59:12;;;;;;;;;;;;;;;;;;5324349;28;19907;-75
2023/07/26 12:01:43;;;;;;;;;;;;;;;;;;5323738;28;19907;-75
2023/07/26 12:04:15;;;;;;;;;;;;;;;;;;5323721;28;19956;-76
2023/07/26 12:06:46;;;;;;;;;;;;;;;;;;5323608;28;19945;-71
2023/07/26 12:09:17;;;;;;;;;;;;;;;;;;5324452;28;19912;-74
2023/07/26 12:11:48;;;;;;;;;;;;;;;;;;5302701;28;19907;-75
2023/07/26 12:14:20;;;;;;;;;;;;;;;;;;5302252;28;19919;-75
2023/07/26 12:16:51;;;;;;;;;;;;;;;;;;5302252;28;19904;-76
2023/07/26 12:19:22;;;;;;;;;;;;;;;;;;5313392;28;19925;-76
2023/07/26 12:21:53;;;;;;;;;;;;;;;;;;5323431;28;19907;-76
2023/07/26 12:24:27;;;;;;;;;;;;;;;;;;5323788;28;19904;-75
2023/07/26 12:26:58;;;;;;;;;;;;;;;;;;5322404;28;19911;-76
2023/07/26 12:29:30;;;;;;;;;;;;;;;;;;5323177;28;19911;-77
2023/07/26 12:32:01;;;;;;;;;;;;;;;;;;5322906;28;19915;-76
2023/07/26 12:34:33;;;;;;;;;;;;;;;;;;5314169;28;19904;-76
2023/07/26 12:37:04;;;;;;;;;;;;;;;;;;5302800;28;19904;-75
2023/07/26 12:39:35;;;;;;;;;;;;;;;;;;5301019;28;20375;-75
2023/07/26 12:42:08;;;;;;;;;;;;;;;;;;5302296;28;19985;-74
2023/07/26 12:44:39;;;;;;;;;;;;;;;;;;5301597;28;19915;-76
2023/07/26 12:47:10;;;;;;;;;;;;;;;;;;5301954;28;19912;-74
2023/07/26 12:49:41;;;;;;;;;;;;;;;;;;5301834;28;19916;-76
2023/07/26 12:52:12;;;;;;;;;;;;;;;;;;5302506;28;19904;-76
2023/07/26 12:54:43;;;;;;;;;;;;;;;;;;5301147;28;20350;-77
2023/07/26 12:57:15;;;;;;;;;;;;;;;;;;5306619;28;19942;-77
2023/07/26 12:59:46;;;;;;;;;;;;;;;;;;5308892;28;19904;-78
2023/07/26 13:02:17;;;;;;;;;;;;;;;;;;5324277;28;19949;-77
2023/07/26 13:04:48;;;;;;;;;;;;;;;;;;5310419;28;19949;-75
2023/07/26 13:07:19;;;;;;;;;;;;;;;;;;5305338;28;19904;-75
2023/07/26 13:09:50;;;;;;;;;;;;;;;;;;5308654;28;19924;-76
2023/07/26 13:12:21;;;;;;;;;;;;;;;;;;5319045;28;20362;-76
2023/07/26 13:14:52;;;;;;;;;;;;;;;;;;5304559;28;20369;-76
2023/07/26 13:17:24;;;;;;;;;;;;;;;;;;5305530;28;20373;-75
2023/07/26 13:19:55;;;;;;;;;;;;;;;;;;5305458;28;19904;-75
2023/07/26 13:22:26;;;;;;;;;;;;;;;;;;5304456;28;20259;-75
2023/07/26 13:24:57;;;;;;;;;;;;;;;;;;5305250;28;19972;-76
2023/07/26 13:27:28;;;;;;;;;;;;;;;;;;5305681;28;19911;-76
2023/07/26 13:29:59;;;;;;;;;;;;;;;;;;5304747;28;19918;-76
2023/07/26 13:32:30;;;;;;;;;;;;;;;;;;5304790;28;20378;-76
2023/07/26 13:35:01;;;;;;;;;;;;;;;;;;5305635;28;19908;-76
2023/07/26 13:37:34;;;;;;;;;;;;;;;;;;5304391;28;20249;-77
2023/07/26 13:40:05;;;;;;;;;;;;;;;;;;5305600;28;19911;-77
2023/07/26 13:42:36;;;;;;;;;;;;;;;;;;5304018;28;19911;-77
2023/07/26 13:45:07;;;;;;;;;;;;;;;;;;5305741;28;19904;-76
2023/07/26 13:47:38;;;;;;;;;;;;;;;;;;5305188;28;20235;-76
2023/07/26 13:50:09;;;;;;;;;;;;;;;;;;5304516;28;19912;-77
2023/07/26 13:52:41;;;;;;;;;;;;;;;;;;5304888;28;19912;-75
2023/07/26 13:55:12;;;;;;;;;;;;;;;;;;5304762;28;19911;-76
2023/07/26 13:57:43;;;;;;;;;;;;;;;;;;5303846;28;20544;-76
2023/07/26 14:00:14;;;;;;;;;;;;;;;;;;5305353;28;19904;-75
2023/07/26 14:02:45;;;;;;;;;;;;;;;;;;5304606;28;19904;-76
2023/07/26 14:05:16;;;;;;;;;;;;;;;;;;5304220;28;19911;-76
2023/07/26 14:07:47;;;;;;;;;;;;;;;;;;5312307;28;19903;-75
2023/07/26 14:10:18;;;;;;;;;;;;;;;;;;5324695;28;19912;-74
2023/07/26 14:12:49;;;;;;;;;;;;;;;;;;5324453;28;19908;-75
2023/07/26 14:15:20;;;;;;;;;;;;;;;;;;5325528;28;19916;-76
2023/07/26 14:17:52;;;;;;;;;;;;;;;;;;5324616;28;19903;-75
2023/07/26 14:20:23;;;;;;;;;;;;;;;;;;5325795;28;19903;-76
2023/07/26 14:22:54;;;;;;;;;;;;;;;;;;5325510;28;19910;-74
2023/07/26 14:25:25;;;;;;;;;;;;;;;;;;5324500;28;19922;-76
2023/07/26 14:27:56;;;;;;;;;;;;;;;;;;5325105;28;20278;-75
2023/07/26 14:30:27;;;;;;;;;;;;;;;;;;5325070;28;19912;-74
2023/07/26 14:32:58;;;;;;;;;;;;;;;;;;5324348;28;20393;-74
2023/07/26 14:35:29;;;;;;;;;;;;;;;;;;5325415;28;19904;-73
2023/07/26 14:38:00;;;;;;;;;;;;;;;;;;5324354;28;20006;-74
2023/07/26 14:40:31;;;;;;;;;;;;;;;;;;5324654;28;20266;-74
2023/07/26 14:43:03;;;;;;;;;;;;;;;;;;5325345;28;19911;-75
2023/07/26 14:45:34;;;;;;;;;;;;;;;;;;5324449;28;20261;-74
2023/07/26 14:48:05;;;;;;;;;;;;;;;;;;5325622;28;19900;-75
2023/07/26 14:50:36;;;;;;;;;;;;;;;;;;5324818;28;20380;-75
2023/07/26 14:53:07;;;;;;;;;;;;;;;;;;5324790;28;19910;-73
2023/07/26 14:55:38;;;;;;;;;;;;;;;;;;5324634;28;19933;-76
2023/07/26 14:58:09;;;;;;;;;;;;;;;;;;5325484;28;20355;-74
2023/07/26 15:00:40;;;;;;;;;;;;;;;;;;5317265;28;20042;-76
2023/07/26 15:03:11;;;;;;;;;;;;;;;;;;5322705;28;20018;-74
2023/07/26 15:05:44;;;;;;;;;;;;;;;;;;5324375;28;19994;-75
2023/07/26 15:08:15;;;;;;;;;;;;;;;;;;5324321;28;19910;-74
2023/07/26 15:10:46;;;;;;;;;;;;;;;;;;5324189;28;19912;-75
2023/07/26 15:13:18;;;;;;;;;;;;;;;;;;5324172;28;19954;-76
2023/07/26 15:15:49;;;;;;;;;;;;;;;;;;5323743;28;19903;-75
2023/07/26 15:18:20;;;;;;;;;;;;;;;;;;5323598;28;19911;-76
2023/07/26 15:20:51;;;;;;;;;;;;;;;;;;5324002;28;19904;-75
2023/07/26 15:23:22;;;;;;;;;;;;;;;;;;5325135;28;20378;-75
2023/07/26 15:25:53;;;;;;;;;;;;;;;;;;5323742;28;19911;-75
2023/07/26 15:28:24;;;;;;;;;;;;;;;;;;5323607;28;20282;-75
2023/07/26 15:30:55;;;;;;;;;;;;;;;;;;5324425;28;19915;-75
2023/07/26 15:33:27;;;;;;;;;;;;;;;;;;5324479;28;19915;-74
2023/07/26 15:35:58;;;;;;;;;;;;;;;;;;5323661;28;19904;-74
2023/07/26 15:38:29;;;;;;;;;;;;;;;;;;5324227;28;19912;-75
2023/07/26 15:41:01;;;;;;;;;;;;;;;;;;5324252;28;20002;-75
2023/07/26 15:43:32;;;;;;;;;;;;;;;;;;5323362;28;19983;-75
2023/07/26 15:46:04;;;;;;;;;;;;;;;;;;5324064;28;19922;-75
2023/07/26 15:48:35;;;;;;;;;;;;;;;;;;5323899;28;19948;-75
2023/07/26 15:51:06;;;;;;;;;;;;;;;;;;5323840;28;20274;-75
2023/07/26 15:53:37;;;;;;;;;;;;;;;;;;5323842;28;19919;-78
2023/07/26 15:56:08;;;;;;;;;;;;;;;;;;5324149;28;19907;-78
2023/07/26 15:58:39;;;;;;;;;;;;;;;;;;5323830;28;19961;-77
2023/07/26 16:01:10;;;;;;;;;;;;;;;;;;5324504;28;19904;-77
2023/07/26 16:03:42;;;;;;;;;;;;;;;;;;5322909;28;19903;-78
2023/07/26 16:06:13;;;;;;;;;;;;;;;;;;5324299;28;19956;-78
2023/07/26 16:08:44;;;;;;;;;;;;;;;;;;5323804;28;19904;-78
2023/07/26 16:11:15;;;;;;;;;;;;;;;;;;5323788;28;20262;-76
2023/07/26 16:13:47;;;;;;;;;;;;;;;;;;5323833;28;19964;-77
2023/07/26 16:16:18;;;;;;;;;;;;;;;;;;5324292;28;19904;-78
2023/07/26 16:18:49;;;;;;;;;;;;;;;;;;5323101;28;19914;-78
2023/07/26 16:21:20;;;;;;;;;;;;;;;;;;5324510;28;19907;-78
2023/07/26 16:23:51;;;;;;;;;;;;;;;;;;5323807;28;19933;-77
2023/07/26 16:26:22;;;;;;;;;;;;;;;;;;5323322;28;19904;-76
2023/07/26 16:28:53;;;;;;;;;;;;;;;;;;5323489;28;19912;-77
2023/07/26 16:31:24;;;;;;;;;;;;;;;;;;5323084;28;20250;-76
2023/07/26 16:33:56;;;;;;;;;;;;;;;;;;5299601;28;19916;-77
2023/07/26 16:36:27;;;;;;;;;;;;;;;;;;5302687;28;20345;-77
2023/07/26 16:38:58;;;;;;;;;;;;;;;;;;5305883;28;19904;-73
2023/07/26 16:41:29;;;;;;;;;;;;;;;;;;5306073;28;19904;-73
2023/07/26 16:44:00;;;;;;;;;;;;;;;;;;5306342;28;19912;-73
2023/07/26 16:46:31;;;;;;;;;;;;;;;;;;5305166;28;19908;-74
2023/07/26 16:49:02;;;;;;;;;;;;;;;;;;5305995;28;19911;-73
2023/07/26 16:51:33;;;;;;;;;;;;;;;;;;5305774;28;19907;-73
2023/07/26 16:54:04;;;;;;;;;;;;;;;;;;5305611;28;19904;-73
2023/07/26 16:56:35;;;;;;;;;;;;;;;;;;5306157;28;19957;-73
2023/07/26 16:59:07;;;;;;;;;;;;;;;;;;5305450;28;20604;-74
2023/07/26 17:01:38;;;;;;;;;;;;;;;;;;5305508;28;19904;-73
2023/07/26 17:04:10;;;;;;;;;;;;;;;;;;5306037;28;19904;-74
2023/07/26 17:06:41;;;;;;;;;;;;;;;;;;5304313;28;19908;-73
2023/07/26 17:09:12;;;;;;;;;;;;;;;;;;5306212;28;20374;-73
2023/07/26 17:11:43;;;;;;;;;;;;;;;;;;5305988;28;19911;-74